Time;durP1;ratioP1;P1;durP2;ratioP2;P2;SDS_P1;SDS_P2;PMS_P1;PMS_P2;Temp;Humidity;BMP_temperature;BMP_pressure;BME280_temperature;BME280_humidity;BME280_pressure;Samples;Min_cycle;Max_cycle;Signal;HPM_P1;HPM_P2
2023/09/10 00:00:49;;;;;;;6.32;5.72;;;21.30;65.10;;;;;;5089465;28;20065;-71
2023/09/10 00:03:16;;;;;;;6.25;5.65;;;21.30;65.20;;;;;;5101282;28;20044;-71
2023/09/10 00:05:41;;;;;;;5.25;4.75;;;21.30;65.30;;;;;;5075455;28;20049;-69
2023/09/10 00:08:07;;;;;;;6.38;5.78;;;21.30;65.40;;;;;;5103571;28;20122;-68
2023/09/10 00:10:33;;;;;;;7.95;7.15;;;21.20;65.50;;;;;;5095370;28;20181;-69
2023/09/10 00:12:58;;;;;;;7.00;6.40;;;21.20;65.70;;;;;;5077434;28;20043;-69
2023/09/10 00:15:24;;;;;;;6.80;5.97;;;21.20;65.80;;;;;;5094027;28;20048;-68
2023/09/10 00:17:51;;;;;;;5.68;5.18;;;21.10;65.80;;;;;;5080994;28;20050;-69
2023/09/10 00:20:17;;;;;;;6.15;5.45;;;21.10;65.90;;;;;;5094317;28;20071;-69
2023/09/10 00:22:43;;;;;;;6.15;5.57;;;21.00;65.90;;;;;;5108877;28;20076;-69
2023/09/10 00:25:10;;;;;;;5.85;5.25;;;21.00;66.00;;;;;;5097870;28;20054;-70
2023/09/10 00:27:35;;;;;;;6.00;5.45;;;21.00;66.00;;;;;;5113821;28;20048;-70
2023/09/10 00:30:01;;;;;;;5.68;5.18;;;21.00;66.10;;;;;;5097169;28;20452;-70
2023/09/10 00:32:27;;;;;;;7.78;7.07;;;21.00;66.10;;;;;;5107470;28;20039;-70
2023/09/10 00:34:52;;;;;;;7.03;6.32;;;20.90;66.10;;;;;;5114101;28;20040;-69
2023/09/10 00:37:18;;;;;;;8.80;7.90;;;20.90;66.40;;;;;;5093997;28;20071;-70
2023/09/10 00:39:45;;;;;;;6.57;5.97;;;20.90;66.50;;;;;;5093966;28;20040;-70
2023/09/10 00:42:10;;;;;;;7.32;6.63;;;20.90;66.50;;;;;;5107950;28;20040;-70
2023/09/10 00:44:37;;;;;;;9.02;8.23;;;20.80;66.60;;;;;;5096957;28;20046;-70
2023/09/10 00:47:04;;;;;;;9.07;8.18;;;20.80;66.60;;;;;;5113987;28;20080;-70
2023/09/10 00:49:30;;;;;;;7.20;6.50;;;20.80;66.80;;;;;;5109577;28;20483;-70
2023/09/10 00:51:59;;;;;;;8.07;7.38;;;20.80;66.90;;;;;;5073851;28;20365;-70
2023/09/10 00:54:25;;;;;;;8.07;7.28;;;20.80;67.00;;;;;;5103522;28;20047;-70
2023/09/10 00:56:52;;;;;;;7.25;6.57;;;20.70;66.90;;;;;;5100300;28;20047;-70
2023/09/10 00:59:18;;;;;;;8.93;6.68;;;20.70;66.90;;;;;;5093288;28;20094;-70
2023/09/10 01:01:44;;;;;;;7.32;6.63;;;20.70;66.80;;;;;;5093495;28;20402;-70
2023/09/10 01:04:10;;;;;;;7.45;6.75;;;20.70;66.70;;;;;;5093655;28;20024;-70
2023/09/10 01:06:36;;;;;;;6.03;5.45;;;20.70;66.60;;;;;;5093244;28;20109;-70
2023/09/10 01:09:04;;;;;;;6.75;6.15;;;20.70;66.40;;;;;;5095226;28;20058;-70
2023/09/10 01:11:51;;;;;;;6.05;5.18;;;20.60;66.20;;;;;;5113441;28;20048;-70
2023/09/10 01:14:27;;;;;;;7.40;6.63;;;20.60;66.10;;;;;;5094331;28;20768;-70
2023/09/10 01:17:13;;;;;;;6.65;5.47;;;20.60;66.10;;;;;;5092273;28;20044;-71
2023/09/10 01:19:50;;;;;;;6.47;5.75;;;20.60;66.30;;;;;;5100170;28;20418;-70
2023/09/10 01:22:32;;;;;;;7.78;6.97;;;20.60;66.30;;;;;;5072636;28;20063;-70
2023/09/10 01:24:58;;;;;;;5.70;5.10;;;20.50;66.10;;;;;;5093952;28;20554;-70
2023/09/10 01:27:24;;;;;;;5.72;5.13;;;20.50;66.20;;;;;;5093919;28;20039;-70
2023/09/10 01:29:50;;;;;;;5.70;5.20;;;20.50;66.30;;;;;;5091280;28;20047;-70
2023/09/10 01:32:34;;;;;;;6.07;5.47;;;20.50;66.40;;;;;;5093012;28;20046;-70
2023/09/10 01:35:03;;;;;;;;;;;20.50;66.70;;;;;;5093117;28;20419;-70
2023/09/10 01:38:00;;;;;;;6.38;5.78;;;20.40;65.70;;;;;;5094106;28;19922;-70
2023/09/10 01:40:34;;;;;;;6.75;6.15;;;20.40;66.20;;;;;;5098106;28;20043;-70
2023/09/10 01:43:02;;;;;;;8.65;7.85;;;20.40;66.40;;;;;;5113006;28;20047;-70
2023/09/10 01:45:29;;;;;;;6.22;5.50;;;20.40;66.30;;;;;;5093193;28;20040;-70
2023/09/10 01:47:56;;;;;;;7.97;7.10;;;20.40;66.40;;;;;;5111180;28;20042;-70
2023/09/10 01:50:22;;;;;;;5.93;5.22;;;20.40;66.50;;;;;;5105951;28;20044;-70
2023/09/10 01:52:47;;;;;;;6.45;5.85;;;20.30;66.40;;;;;;5094738;28;20042;-70
2023/09/10 01:55:13;;;;;;;7.90;7.20;;;20.30;66.50;;;;;;5105233;28;20039;-70
2023/09/10 01:57:39;;;;;;;7.53;6.82;;;20.30;66.30;;;;;;5113830;28;20035;-70
2023/09/10 02:00:07;;;;;;;6.03;5.40;;;20.20;66.20;;;;;;5093071;28;20056;-70
2023/09/10 02:02:33;;;;;;;8.32;7.55;;;20.20;66.40;;;;;;5092236;28;20052;-70
2023/09/10 02:04:59;;;;;;;6.40;5.70;;;20.20;66.60;;;;;;5096530;28;20050;-70
2023/09/10 02:07:25;;;;;;;6.85;6.20;;;20.10;66.80;;;;;;5091330;28;20031;-70
2023/09/10 02:09:51;;;;;;;6.68;6.07;;;20.10;66.90;;;;;;5087421;28;20402;-70
2023/09/10 02:12:16;;;;;;;6.70;5.60;;;20.10;67.10;;;;;;5112678;28;20486;-70
2023/09/10 02:14:48;;;;;;;7.03;6.22;;;20.10;67.10;;;;;;5109820;28;20085;-70
2023/09/10 02:17:14;;;;;;;7.93;6.65;;;20.10;67.20;;;;;;5110056;28;20036;-70
2023/09/10 02:19:40;;;;;;;7.95;7.15;;;20.10;67.30;;;;;;5112198;28;20043;-70
2023/09/10 02:22:06;;;;;;;7.63;6.93;;;20.00;67.20;;;;;;5111307;28;20054;-70
2023/09/10 02:24:31;;;;;;;7.55;6.85;;;20.00;67.30;;;;;;5091171;28;20054;-70
2023/09/10 02:26:57;;;;;;;6.63;6.03;;;20.00;67.30;;;;;;5091892;28;20055;-70
2023/09/10 02:29:22;;;;;;;6.55;5.88;;;20.00;67.30;;;;;;5091921;28;20073;-70
2023/09/10 02:31:48;;;;;;;7.32;6.13;;;20.00;67.40;;;;;;5092991;28;20380;-70
2023/09/10 02:34:14;;;;;;;7.38;6.68;;;19.90;67.40;;;;;;5092957;28;20101;-70
2023/09/10 02:36:40;;;;;;;6.45;5.85;;;20.00;67.50;;;;;;5091697;28;20472;-70
2023/09/10 02:39:05;;;;;;;7.85;7.05;;;20.00;67.40;;;;;;5085175;28;20464;-70
2023/09/10 02:41:31;;;;;;;8.95;8.20;;;19.90;67.30;;;;;;5077720;28;20048;-70
2023/09/10 02:43:57;;;;;;;8.15;7.45;;;20.00;67.40;;;;;;5086268;28;20103;-70
2023/09/10 02:46:25;;;;;;;7.60;6.80;;;19.90;67.40;;;;;;5116283;28;20047;-70
2023/09/10 02:48:51;;;;;;;8.77;7.97;;;19.90;67.40;;;;;;5112024;28;20129;-70
2023/09/10 02:51:16;;;;;;;7.97;7.25;;;19.90;67.50;;;;;;5101382;28;20080;-70
2023/09/10 02:53:42;;;;;;;9.10;8.20;;;19.90;67.60;;;;;;5095925;28;20391;-70
2023/09/10 02:56:07;;;;;;;7.43;6.72;;;19.90;67.60;;;;;;5115995;28;20044;-70
2023/09/10 02:58:33;;;;;;;8.90;8.07;;;19.90;67.60;;;;;;5116191;28;20061;-70
2023/09/10 03:01:05;;;;;;;8.85;7.95;;;19.80;67.60;;;;;;5115986;28;20502;-70
2023/09/10 03:03:34;;;;;;;7.80;6.55;;;19.90;67.70;;;;;;5115909;28;20557;-70
2023/09/10 03:06:00;;;;;;;6.82;6.22;;;19.80;67.60;;;;;;5109882;28;20044;-70
2023/09/10 03:08:26;;;;;;;7.68;6.88;;;19.80;67.60;;;;;;5096857;28;20055;-70
2023/09/10 03:10:52;;;;;;;7.95;7.25;;;19.80;67.60;;;;;;5114467;28;20039;-70
2023/09/10 03:13:17;;;;;;;10.00;9.10;;;19.80;67.70;;;;;;5115541;28;20491;-70
2023/09/10 03:15:48;;;;;;;7.93;7.20;;;19.80;67.70;;;;;;5115283;28;20055;-70
2023/09/10 03:18:13;;;;;;;8.15;7.35;;;19.80;67.70;;;;;;5115628;28;20079;-70
2023/09/10 03:20:39;;;;;;;8.18;7.47;;;19.80;67.70;;;;;;5103250;28;20079;-70
2023/09/10 03:23:06;;;;;;;6.47;5.88;;;19.70;67.60;;;;;;5112063;28;20043;-70
2023/09/10 03:25:37;;;;;;;6.10;5.53;;;19.70;68.00;;;;;;5115824;28;20422;-70
2023/09/10 03:28:04;;;;;;;7.18;6.47;;;19.70;67.50;;;;;;5080017;28;20048;-70
2023/09/10 03:30:29;;;;;;;7.10;6.50;;;19.70;67.50;;;;;;5074824;28;20543;-70
2023/09/10 03:32:55;;;;;;;6.95;6.35;;;19.70;67.60;;;;;;5075037;28;20123;-70
2023/09/10 03:35:20;;;;;;;7.05;6.10;;;19.70;67.60;;;;;;5090228;28;20403;-70
2023/09/10 03:37:46;;;;;;;5.55;5.05;;;19.60;67.60;;;;;;5102573;28;20042;-70
2023/09/10 03:40:12;;;;;;;6.55;5.95;;;19.60;67.60;;;;;;5089499;28;20051;-70
2023/09/10 03:42:37;;;;;;;6.80;6.13;;;19.60;67.60;;;;;;5096029;28;20056;-70
2023/09/10 03:45:04;;;;;;;6.50;5.65;;;19.60;67.60;;;;;;5094049;28;20115;-70
2023/09/10 03:47:33;;;;;;;6.78;6.18;;;19.60;67.60;;;;;;5096016;28;20494;-70
2023/09/10 03:49:59;;;;;;;6.72;6.03;;;19.60;67.70;;;;;;5094664;28;20044;-70
2023/09/10 03:52:25;;;;;;;5.47;4.97;;;19.60;67.70;;;;;;5094269;28;20511;-70
2023/09/10 03:54:51;;;;;;;6.43;5.82;;;19.60;67.70;;;;;;5109786;28;20075;-70
2023/09/10 03:57:16;;;;;;;5.97;5.47;;;19.60;67.60;;;;;;5102095;28;20117;-70
2023/09/10 03:59:42;;;;;;;5.82;5.20;;;19.60;67.60;;;;;;5093724;28;20380;-70
2023/09/10 04:02:08;;;;;;;7.53;6.82;;;19.60;67.60;;;;;;5094674;28;20047;-70
2023/09/10 04:04:34;;;;;;;6.57;5.97;;;19.60;67.70;;;;;;5100425;28;20119;-70
2023/09/10 04:07:00;;;;;;;6.60;5.90;;;19.50;67.50;;;;;;5105027;28;20063;-70
2023/09/10 04:09:25;;;;;;;6.15;5.45;;;19.50;67.50;;;;;;5095701;28;20044;-70
2023/09/10 04:11:51;;;;;;;5.50;5.00;;;19.50;67.50;;;;;;5106344;28;20097;-70
2023/09/10 04:14:17;;;;;;;4.78;4.38;;;19.40;67.40;;;;;;5107117;28;20062;-70
2023/09/10 04:16:43;;;;;;;4.80;4.40;;;19.40;67.40;;;;;;5114549;28;20117;-70
2023/09/10 04:19:08;;;;;;;5.13;4.63;;;19.40;67.40;;;;;;5114297;28;20043;-70
2023/09/10 04:21:34;;;;;;;4.65;4.25;;;19.40;67.40;;;;;;5114477;28;20055;-70
2023/09/10 04:24:00;;;;;;;5.78;5.28;;;19.30;67.40;;;;;;5114499;28;20046;-70
2023/09/10 04:26:26;;;;;;;5.78;5.28;;;19.30;67.50;;;;;;5087442;28;20040;-70
2023/09/10 04:28:52;;;;;;;5.43;4.93;;;19.30;67.50;;;;;;5102727;28;20044;-70
2023/09/10 04:31:18;;;;;;;5.10;4.60;;;19.30;67.40;;;;;;5107586;28;20048;-70
2023/09/10 04:33:44;;;;;;;4.88;4.30;;;19.30;67.40;;;;;;5108581;28;20078;-70
2023/09/10 04:36:10;;;;;;;4.22;3.83;;;19.30;67.30;;;;;;5093787;28;20036;-70
2023/09/10 04:38:35;;;;;;;4.20;3.70;;;19.30;67.20;;;;;;5092889;28;20047;-70
2023/09/10 04:41:02;;;;;;;4.22;3.83;;;19.30;67.20;;;;;;5100996;28;20051;-70
2023/09/10 04:43:27;;;;;;;7.32;6.72;;;19.20;67.60;;;;;;5113856;28;20039;-70
2023/09/10 04:45:53;;;;;;;4.18;3.78;;;19.20;67.20;;;;;;5113953;28;20040;-70
2023/09/10 04:48:19;;;;;;;5.50;5.00;;;19.10;67.20;;;;;;5094714;28;20119;-70
2023/09/10 04:50:45;;;;;;;8.25;7.45;;;19.10;67.30;;;;;;5105016;28;20043;-70
2023/09/10 04:53:13;;;;;;;6.90;6.30;;;19.10;67.40;;;;;;5105990;28;20028;-70
2023/09/10 04:55:38;;;;;;;4.68;3.95;;;19.00;67.40;;;;;;5092232;28;20050;-70
2023/09/10 04:58:04;;;;;;;4.38;3.97;;;19.00;67.50;;;;;;5113739;28;20039;-70
2023/09/10 05:00:30;;;;;;;5.65;5.15;;;19.00;67.80;;;;;;5105713;28;20103;-71
2023/09/10 05:02:56;;;;;;;5.82;5.32;;;19.00;68.00;;;;;;5087361;28;20039;-70
2023/09/10 05:05:22;;;;;;;5.88;4.82;;;18.90;68.10;;;;;;5096872;28;20129;-70
2023/09/10 05:07:49;;;;;;;6.93;6.15;;;18.90;68.30;;;;;;5093200;28;20490;-70
2023/09/10 05:10:15;;;;;;;6.32;5.72;;;18.90;68.50;;;;;;5094701;28;20310;-70
2023/09/10 05:12:41;;;;;;;8.45;7.75;;;18.90;68.60;;;;;;5113432;28;20036;-70
2023/09/10 05:15:07;;;;;;;5.97;5.40;;;18.90;68.70;;;;;;5113287;28;20051;-70
2023/09/10 05:17:33;;;;;;;4.90;4.40;;;18.90;68.80;;;;;;5096747;28;20444;-70
2023/09/10 05:19:59;;;;;;;7.57;6.88;;;18.90;68.90;;;;;;5107281;28;20040;-70
2023/09/10 05:22:24;;;;;;;6.18;5.57;;;18.80;69.00;;;;;;5097903;28;20044;-70
2023/09/10 05:24:50;;;;;;;4.80;4.40;;;18.80;69.10;;;;;;5057715;28;20178;-70
2023/09/10 05:27:16;;;;;;;4.95;4.47;;;18.80;69.10;;;;;;5114402;28;20042;-70
2023/09/10 05:29:41;;;;;;;11.02;10.02;;;18.80;69.10;;;;;;5112832;28;20047;-70
2023/09/10 05:32:07;;;;;;;9.32;8.52;;;18.80;69.30;;;;;;5111090;28;20092;-70
2023/09/10 05:34:32;;;;;;;7.60;6.90;;;18.80;69.40;;;;;;5092586;28;20055;-70
2023/09/10 05:36:58;;;;;;;8.18;7.47;;;18.80;69.50;;;;;;5094082;28;20078;-70
2023/09/10 05:39:24;;;;;;;9.48;8.68;;;18.80;69.50;;;;;;5101670;28;20471;-70
2023/09/10 05:41:49;;;;;;;9.98;8.98;;;18.80;69.60;;;;;;5092601;28;20497;-70
2023/09/10 05:44:16;;;;;;;10.57;9.68;;;18.80;69.70;;;;;;5092484;28;20047;-70
2023/09/10 05:46:41;;;;;;;8.73;7.93;;;18.80;69.70;;;;;;5091834;28;20689;-70
2023/09/10 05:49:07;;;;;;;11.40;10.40;;;18.80;69.80;;;;;;5092298;28;20059;-70
2023/09/10 05:51:33;;;;;;;14.23;12.88;;;18.80;69.90;;;;;;5092346;28;20089;-70
2023/09/10 05:53:59;;;;;;;13.05;11.95;;;18.80;70.00;;;;;;5100423;28;20056;-70
2023/09/10 05:56:27;;;;;;;14.43;13.23;;;18.80;70.10;;;;;;5110689;28;20046;-70
2023/09/10 05:58:53;;;;;;;13.88;12.68;;;18.80;70.30;;;;;;5112873;28;20058;-70
2023/09/10 06:01:19;;;;;;;13.18;11.98;;;18.80;70.50;;;;;;5103144;28;20052;-70
2023/09/10 06:03:44;;;;;;;17.00;15.52;;;18.80;70.70;;;;;;5101245;28;20062;-70
2023/09/10 06:06:10;;;;;;;20.00;18.17;;;18.80;70.90;;;;;;5092454;28;20082;-70
2023/09/10 06:08:36;;;;;;;21.58;19.67;;;18.90;71.40;;;;;;5110495;28;20470;-70
2023/09/10 06:11:01;;;;;;;23.70;21.42;;;18.90;71.80;;;;;;5110806;28;20056;-70
2023/09/10 06:13:28;;;;;;;22.30;20.30;;;18.90;72.20;;;;;;5093073;28;20426;-71
2023/09/10 06:15:54;;;;;;;21.95;19.98;;;19.00;72.70;;;;;;5091811;28;20071;-70
2023/09/10 06:18:19;;;;;;;21.88;19.90;;;19.00;73.00;;;;;;5092025;28;20094;-70
2023/09/10 06:20:45;;;;;;;18.63;16.88;;;19.10;73.20;;;;;;5091947;28;20087;-70
2023/09/10 06:23:11;;;;;;;19.08;17.30;;;19.20;73.30;;;;;;5091914;28;20077;-70
2023/09/10 06:25:37;;;;;;;22.17;19.85;;;19.30;73.30;;;;;;5075008;28;20039;-70
2023/09/10 06:28:02;;;;;;;23.13;20.83;;;19.50;73.50;;;;;;5090983;28;20035;-70
2023/09/10 06:30:28;;;;;;;19.20;17.42;;;19.50;73.50;;;;;;5111174;28;20047;-70
2023/09/10 06:32:56;;;;;;;19.35;17.50;;;19.70;73.40;;;;;;5104033;28;20129;-70
2023/09/10 06:35:21;;;;;;;23.02;20.92;;;19.80;73.00;;;;;;5091756;28;20479;-70
2023/09/10 06:37:48;;;;;;;21.55;19.25;;;20.00;73.00;;;;;;5092058;28;20138;-70
2023/09/10 06:40:14;;;;;;;20.70;18.70;;;20.00;72.80;;;;;;5091733;28;20058;-70
2023/09/10 06:42:40;;;;;;;18.92;17.15;;;20.20;72.80;;;;;;5105316;28;20039;-70
2023/09/10 06:45:06;;;;;;;22.75;20.65;;;20.30;72.80;;;;;;5112676;28;20403;-70
2023/09/10 06:47:31;;;;;;;26.27;23.70;;;20.40;72.70;;;;;;5110652;28;20044;-70
2023/09/10 06:49:57;;;;;;;24.58;22.30;;;20.40;72.90;;;;;;5094335;28;20055;-70
2023/09/10 06:52:23;;;;;;;33.25;30.25;;;20.50;73.10;;;;;;5091575;28;20032;-70
2023/09/10 06:54:49;;;;;;;27.42;24.83;;;20.60;73.40;;;;;;5091996;28;20032;-70
2023/09/10 06:57:15;;;;;;;32.65;29.60;;;20.70;73.60;;;;;;5111579;28;20067;-70
2023/09/10 06:59:41;;;;;;;33.28;30.17;;;20.70;73.70;;;;;;5099650;28;20078;-70
2023/09/10 07:02:06;;;;;;;36.50;33.08;;;20.80;73.90;;;;;;5109681;28;20061;-71
2023/09/10 07:04:32;;;;;;;31.52;28.50;;;20.80;74.10;;;;;;5097122;28;20044;-70
2023/09/10 07:06:58;;;;;;;38.47;34.78;;;20.80;74.30;;;;;;5103514;28;20075;-70
2023/09/10 07:09:24;;;;;;;45.15;40.47;;;20.90;74.50;;;;;;5091203;28;20549;-70
2023/09/10 07:11:51;;;;;;;42.35;38.35;;;20.90;74.80;;;;;;5091530;28;20040;-70
2023/09/10 07:14:18;;;;;;;44.08;39.88;;;21.00;75.20;;;;;;5091299;28;20101;-70
2023/09/10 07:16:45;;;;;;;44.67;40.47;;;21.00;75.30;;;;;;5091414;28;20486;-70
2023/09/10 07:19:11;;;;;;;48.72;43.95;;;21.00;75.50;;;;;;5092565;28;20044;-70
2023/09/10 07:21:37;;;;;;;45.53;41.00;;;21.10;75.90;;;;;;5097420;28;20417;-70
2023/09/10 07:24:06;;;;;;;45.22;40.72;;;21.10;76.20;;;;;;5099563;28;20055;-70
2023/09/10 07:26:33;;;;;;;48.70;43.70;;;21.10;76.30;;;;;;5100072;28;20044;-70
2023/09/10 07:28:59;;;;;;;48.15;43.35;;;21.10;76.50;;;;;;5100712;28;20040;-70
2023/09/10 07:31:25;;;;;;;44.25;40.13;;;21.20;76.70;;;;;;5101313;28;20038;-70
2023/09/10 07:33:50;;;;;;;44.92;40.67;;;21.20;76.70;;;;;;5114958;28;20028;-70
2023/09/10 07:36:16;;;;;;;43.92;39.65;;;21.30;76.90;;;;;;5104203;28;20035;-70
2023/09/10 07:38:42;;;;;;;46.83;42.20;;;21.30;77.10;;;;;;5115437;28;20086;-70
2023/09/10 07:41:07;;;;;;;44.90;40.45;;;21.30;77.10;;;;;;5111529;28;20043;-71
2023/09/10 07:43:33;;;;;;;44.17;39.70;;;21.40;77.20;;;;;;5115122;28;20036;-70
2023/09/10 07:45:59;;;;;;;40.65;36.83;;;21.40;77.20;;;;;;5115245;28;20088;-71
2023/09/10 07:48:24;;;;;;;42.33;38.22;;;21.50;77.30;;;;;;5092907;28;20071;-71
2023/09/10 07:50:57;;;;;;;40.92;37.03;;;21.60;77.50;;;;;;5074406;28;20063;-71
2023/09/10 07:53:24;;;;;;;40.73;36.77;;;21.60;77.60;;;;;;5097464;28;20039;-71
2023/09/10 07:55:49;;;;;;;38.03;34.20;;;21.70;77.70;;;;;;5108727;28;20306;-71
2023/09/10 07:58:15;;;;;;;37.78;34.20;;;21.80;77.80;;;;;;5094561;28;20102;-71
2023/09/10 08:00:41;;;;;;;37.00;33.45;;;21.80;78.00;;;;;;5094564;28;20044;-71
2023/09/10 08:03:07;;;;;;;36.00;32.63;;;22.00;77.90;;;;;;5096354;28;20115;-71
2023/09/10 08:05:34;;;;;;;34.60;30.67;;;22.10;77.70;;;;;;5103319;28;20050;-71
2023/09/10 08:08:03;;;;;;;33.33;30.17;;;22.20;77.80;;;;;;5108253;28;20039;-71
2023/09/10 08:10:33;;;;;;;33.25;30.05;;;22.40;77.40;;;;;;5107032;28;20047;-71
2023/09/10 08:12:59;;;;;;;35.00;31.67;;;22.60;77.20;;;;;;5094334;28;20040;-71
2023/09/10 08:15:25;;;;;;;32.28;29.10;;;22.70;76.80;;;;;;5094675;28;20052;-69
2023/09/10 08:17:54;;;;;;;33.42;30.20;;;22.80;76.50;;;;;;5106107;28;20078;-70
2023/09/10 08:20:20;;;;;;;32.33;29.33;;;23.00;75.90;;;;;;5097141;28;20040;-71
2023/09/10 08:22:46;;;;;;;32.53;29.50;;;23.10;75.50;;;;;;5112475;28;20483;-71
2023/09/10 08:25:13;;;;;;;30.75;27.65;;;23.20;75.30;;;;;;5106861;28;20426;-71
2023/09/10 08:27:39;;;;;;;33.70;30.60;;;23.40;75.10;;;;;;5105102;28;20040;-71
2023/09/10 08:30:06;;;;;;;29.85;27.02;;;23.60;75.00;;;;;;5099552;28;20050;-71
2023/09/10 08:32:37;;;;;;;31.90;28.75;;;23.70;74.30;;;;;;5094729;28;20075;-71
2023/09/10 08:35:03;;;;;;;30.40;27.30;;;23.90;74.50;;;;;;5111218;28;20054;-71
2023/09/10 08:37:29;;;;;;;28.77;26.17;;;24.00;73.60;;;;;;5074530;28;20127;-71
2023/09/10 08:39:55;;;;;;;30.30;27.50;;;24.10;72.90;;;;;;5079263;28;20568;-71
2023/09/10 08:42:50;;;;;;;29.65;26.70;;;24.30;72.50;;;;;;5089237;28;20067;-71
2023/09/10 08:45:16;;;;;;;29.27;26.67;;;24.40;72.50;;;;;;5086098;28;20052;-71
2023/09/10 08:47:43;;;;;;;25.27;22.98;;;24.50;71.70;;;;;;5073398;28;20047;-71
2023/09/10 08:50:13;;;;;;;27.60;24.80;;;24.60;71.10;;;;;;5077889;28;20075;-71
2023/09/10 08:52:41;;;;;;;25.75;23.45;;;24.70;70.50;;;;;;5077698;28;20051;-71
2023/09/10 08:55:08;;;;;;;24.30;21.98;;;24.80;69.60;;;;;;5074275;28;20078;-71
2023/09/10 08:57:37;;;;;;;23.63;21.40;;;24.90;68.90;;;;;;5074727;28;20047;-71
2023/09/10 09:00:10;;;;;;;19.95;18.15;;;25.00;69.00;;;;;;5077633;28;20094;-71
2023/09/10 09:02:37;;;;;;;19.25;17.50;;;25.20;68.10;;;;;;5078504;28;20510;-72
2023/09/10 09:05:04;;;;;;;23.08;20.67;;;25.40;67.50;;;;;;5085988;28;20101;-71
2023/09/10 09:07:54;;;;;;;21.23;19.10;;;25.50;66.80;;;;;;5077708;28;20119;-71
2023/09/10 09:10:30;;;;;;;22.50;20.23;;;25.70;67.10;;;;;;5089288;28;20040;-71
2023/09/10 09:13:04;;;;;;;17.58;15.88;;;25.80;66.20;;;;;;5072941;28;20087;-71
2023/09/10 09:15:31;;;;;;;19.13;17.33;;;25.90;65.70;;;;;;5090669;28;20056;-71
2023/09/10 09:17:58;;;;;;;19.98;18.10;;;26.10;65.50;;;;;;5073989;28;20127;-71
2023/09/10 09:20:25;;;;;;;17.77;16.10;;;26.30;65.20;;;;;;5077849;28;20044;-71
2023/09/10 09:22:56;;;;;;;21.83;19.77;;;26.50;64.90;;;;;;5076417;28;20063;-71
2023/09/10 09:25:22;;;;;;;20.48;18.52;;;26.60;63.70;;;;;;5102060;28;20086;-71
2023/09/10 09:27:50;;;;;;;19.27;17.55;;;26.80;63.40;;;;;;5092777;28;20617;-71
2023/09/10 09:30:15;;;;;;;19.65;17.63;;;26.90;63.20;;;;;;5080443;28;20040;-71
2023/09/10 09:32:42;;;;;;;19.25;17.42;;;26.90;62.70;;;;;;5095182;28;20047;-71
2023/09/10 09:35:11;;;;;;;16.65;15.00;;;27.00;62.30;;;;;;5095362;28;20040;-71
2023/09/10 09:37:37;;;;;;;19.38;17.70;;;27.20;62.20;;;;;;5089981;28;20075;-71
2023/09/10 09:40:04;;;;;;;18.80;16.23;;;27.20;61.70;;;;;;5081902;28;20082;-71
2023/09/10 09:42:30;;;;;;;19.40;17.40;;;27.30;61.40;;;;;;5098252;28;20063;-71
2023/09/10 09:44:57;;;;;;;18.30;16.55;;;27.40;61.30;;;;;;5101323;28;20036;-71
2023/09/10 09:47:23;;;;;;;19.90;17.95;;;27.60;61.20;;;;;;5111058;28;20055;-71
2023/09/10 09:49:49;;;;;;;18.00;16.10;;;27.70;60.70;;;;;;5104142;28;20051;-72
2023/09/10 09:52:18;;;;;;;20.35;18.33;;;27.80;61.00;;;;;;5090691;28;20043;-71
2023/09/10 09:54:48;;;;;;;18.85;17.02;;;27.80;60.80;;;;;;5097084;28;20039;-71
2023/09/10 09:57:14;;;;;;;18.70;16.90;;;27.90;60.10;;;;;;5109469;28;20036;-69
2023/09/10 09:59:40;;;;;;;19.70;17.40;;;28.00;60.00;;;;;;5106799;28;20085;-69
2023/09/10 10:02:14;;;;;;;21.25;18.55;;;28.10;59.80;;;;;;5093240;28;20580;-69
2023/09/10 10:04:41;;;;;;;17.92;15.98;;;28.20;59.20;;;;;;5097661;28;20165;-70
2023/09/10 10:07:09;;;;;;;15.85;14.43;;;28.20;59.60;;;;;;5105259;28;20070;-69
2023/09/10 10:09:36;;;;;;;18.60;16.15;;;28.20;59.40;;;;;;5091313;28;20152;-69
2023/09/10 10:12:04;;;;;;;15.82;14.13;;;28.30;58.80;;;;;;5095224;28;20502;-70
2023/09/10 10:14:34;;;;;;;17.77;15.90;;;28.30;58.40;;;;;;5095236;28;20407;-70
2023/09/10 10:17:01;;;;;;;17.00;15.30;;;28.30;58.80;;;;;;5094204;28;20048;-71
2023/09/10 10:19:30;;;;;;;16.42;14.68;;;28.30;58.80;;;;;;5092576;28;20032;-74
2023/09/10 10:21:56;;;;;;;14.70;13.20;;;28.40;58.90;;;;;;5104780;28;20368;-74
2023/09/10 10:24:23;;;;;;;16.77;15.05;;;28.50;58.90;;;;;;5108672;28;20063;-74
2023/09/10 10:26:51;;;;;;;17.00;15.50;;;28.60;59.00;;;;;;5103935;28;20047;-74
2023/09/10 10:29:18;;;;;;;17.08;15.38;;;28.60;58.50;;;;;;5099721;28;20105;-74
2023/09/10 10:31:47;;;;;;;16.17;14.57;;;28.70;58.40;;;;;;5098448;28;20545;-74
2023/09/10 10:34:21;;;;;;;13.75;12.35;;;28.80;58.20;;;;;;5102409;28;20043;-75
2023/09/10 10:37:19;;;;;;;16.60;14.90;;;28.90;58.30;;;;;;5073951;28;20044;-73
2023/09/10 10:40:00;;;;;;;16.52;13.07;;;29.00;58.20;;;;;;5094388;28;20044;-73
2023/09/10 10:42:36;;;;;;;17.52;12.10;;;29.00;57.60;;;;;;5109562;28;20043;-73
2023/09/10 10:45:06;;;;;;;14.93;12.43;;;29.00;57.30;;;;;;5101071;28;20032;-72
2023/09/10 10:47:38;;;;;;;13.40;11.00;;;29.10;56.70;;;;;;5080312;28;20083;-73
2023/09/10 10:50:08;;;;;;;17.27;10.95;;;29.10;56.40;;;;;;5059632;28;20048;-73
2023/09/10 10:52:46;;;;;;;17.00;11.95;;;29.10;56.70;;;;;;5094691;28;20082;-73
2023/09/10 10:55:12;;;;;;;16.45;11.85;;;29.00;55.70;;;;;;5083878;28;20054;-73
2023/09/10 10:57:39;;;;;;;19.13;11.25;;;29.00;56.10;;;;;;5109721;28;20040;-73
2023/09/10 11:00:10;;;;;;;19.88;12.10;;;28.90;56.40;;;;;;5111423;28;20046;-74
2023/09/10 11:02:36;;;;;;;13.57;10.32;;;28.90;56.60;;;;;;5101275;28;20040;-74
2023/09/10 11:05:04;;;;;;;12.75;10.05;;;28.90;56.10;;;;;;5103290;28;20174;-73
2023/09/10 11:07:31;;;;;;;17.13;12.82;;;28.90;56.10;;;;;;5098884;28;20075;-73
2023/09/10 11:09:58;;;;;;;11.52;10.32;;;28.90;56.60;;;;;;5100694;28;20032;-73
2023/09/10 11:12:25;;;;;;;16.25;11.32;;;28.90;57.00;;;;;;5115853;28;20039;-73
2023/09/10 11:14:59;;;;;;;18.17;10.77;;;28.90;56.40;;;;;;5108175;28;20056;-73
2023/09/10 11:17:35;;;;;;;20.35;11.68;;;28.90;55.60;;;;;;5089594;28;20115;-73
2023/09/10 11:20:03;;;;;;;14.82;10.18;;;28.90;55.40;;;;;;5104105;28;20040;-73
2023/09/10 11:23:09;;;;;;;14.25;9.98;;;28.90;55.90;;;;;;5099996;28;20498;-73
2023/09/10 11:25:37;;;;;;;18.80;9.55;;;28.90;55.60;;;;;;5091574;28;20051;-73
2023/09/10 11:28:03;;;;;;;16.50;10.02;;;29.00;56.20;;;;;;5078557;28;20368;-73
2023/09/10 11:30:29;;;;;;;16.30;10.07;;;29.00;56.50;;;;;;5089064;28;20047;-73
2023/09/10 11:33:30;;;;;;;19.83;8.85;;;29.10;55.80;;;;;;5088576;28;20032;-72
2023/09/10 11:35:59;;;;;;;19.45;9.65;;;29.20;55.70;;;;;;5103979;28;20092;-73
2023/09/10 11:38:30;;;;;;;19.25;10.90;;;29.20;54.80;;;;;;5114935;28;20032;-72
2023/09/10 11:40:56;;;;;;;18.83;10.30;;;29.30;55.10;;;;;;5115502;28;20043;-73
2023/09/10 11:43:23;;;;;;;18.60;9.70;;;29.30;55.10;;;;;;5082372;28;20160;-73
2023/09/10 11:45:49;;;;;;;17.88;10.55;;;29.30;55.50;;;;;;5096079;28;20078;-81
2023/09/10 11:48:15;;;;;;;21.52;10.60;;;29.40;55.40;;;;;;5078059;28;20039;-79
2023/09/10 11:50:40;;;;;;;18.02;9.65;;;29.40;54.90;;;;;;5077963;28;20043;-79
2023/09/10 11:53:06;;;;;;;19.35;10.38;;;29.40;54.90;;;;;;5100007;28;20519;-76
2023/09/10 11:55:32;;;;;;;17.83;9.27;;;29.40;54.90;;;;;;5110269;28;20054;-78
2023/09/10 11:57:58;;;;;;;19.20;9.27;;;29.40;54.60;;;;;;5106665;28;20117;-78
2023/09/10 12:00:24;;;;;;;19.60;9.60;;;29.40;54.10;;;;;;5107156;28;20042;-76
2023/09/10 12:02:51;;;;;;;12.63;8.18;;;29.40;54.30;;;;;;5106423;28;20031;-77
2023/09/10 12:05:16;;;;;;;22.92;11.10;;;29.40;54.80;;;;;;5101552;28;20038;-78
2023/09/10 12:07:45;;;;;;;23.45;9.48;;;29.40;54.90;;;;;;5106208;28;20118;-78
2023/09/10 12:10:12;;;;;;;14.07;8.63;;;29.40;54.60;;;;;;5099845;28;20503;-79
2023/09/10 12:12:40;;;;;;;16.83;9.57;;;29.50;54.90;;;;;;5110518;28;20463;-79
2023/09/10 12:15:07;;;;;;;16.10;9.35;;;29.50;55.10;;;;;;5108572;28;20052;-79
2023/09/10 12:17:32;;;;;;;16.80;9.48;;;29.60;55.40;;;;;;5099049;28;20035;-80
2023/09/10 12:19:59;;;;;;;15.15;9.60;;;29.60;55.30;;;;;;5097193;28;20047;-79
2023/09/10 12:22:25;;;;;;;15.40;8.48;;;29.70;55.60;;;;;;5104113;28;20034;-78
2023/09/10 12:24:51;;;;;;;15.90;9.43;;;29.70;55.30;;;;;;5082860;28;20040;-79
2023/09/10 12:27:17;;;;;;;13.55;8.68;;;29.70;55.30;;;;;;5105713;28;20036;-79
2023/09/10 12:29:42;;;;;;;17.02;9.25;;;29.80;55.00;;;;;;5094494;28;20441;-79
2023/09/10 12:32:09;;;;;;;16.55;8.63;;;29.80;55.20;;;;;;5107971;28;20074;-79
2023/09/10 12:34:36;;;;;;;20.73;8.10;;;29.80;55.00;;;;;;5094941;28;20437;-79
2023/09/10 12:37:01;;;;;;;20.70;7.97;;;29.90;54.60;;;;;;5080928;28;20483;-79
2023/09/10 12:39:27;;;;;;;21.65;9.25;;;29.90;54.50;;;;;;5090297;28;20040;-79